createdAt,value
2022-08-12T00:02:20.339Z,101484.69
2022-08-12T00:05:03.744Z,101474.31
2022-08-12T00:07:48.259Z,101482.16
2022-08-12T00:10:30.444Z,101464.97
2022-08-12T00:13:12.624Z,101489.94
2022-08-12T00:15:58.671Z,101484.81
2022-08-12T00:18:40.887Z,101488.34
2022-08-12T00:21:23.243Z,101475.50
2022-08-12T00:24:05.539Z,101479.84
2022-08-12T00:26:47.917Z,101482.53
2022-08-12T00:29:31.130Z,101436.22
2022-08-12T00:32:16.667Z,101486.06
2022-08-12T00:35:18.120Z,101486.06
2022-08-12T00:38:00.639Z,101484.25
2022-08-12T00:40:44.075Z,101467.75
2022-08-12T00:43:17.753Z,101441.84
2022-08-12T00:45:59.975Z,101487.47
2022-08-12T00:48:34.065Z,101467.63
2022-08-12T00:51:07.417Z,101484.94
2022-08-12T00:53:37.978Z,101457.38
2022-08-12T00:56:10.993Z,101482.31
2022-08-12T00:58:50.917Z,101485.75
2022-08-12T01:01:21.421Z,101486.78
2022-08-12T01:04:07.154Z,101481.66
2022-08-12T01:06:51.153Z,101460.31
2022-08-12T01:09:37.671Z,101479.28
2022-08-12T01:12:08.986Z,101481.03
2022-08-12T01:14:40.941Z,101475.03
2022-08-12T01:17:10.837Z,101475.88
2022-08-12T01:19:43.721Z,101476.75
2022-08-12T01:22:25.948Z,101466.50
2022-08-12T01:25:08.454Z,101482.94
2022-08-12T01:27:42.895Z,101477.94
2022-08-12T01:30:16.675Z,101481.41
2022-08-12T01:32:50.525Z,101476.25
2022-08-12T01:35:20.381Z,101452.19
2022-08-12T01:37:55.006Z,101482.31
2022-08-12T01:40:37.696Z,101465.06
2022-08-12T01:43:11.274Z,101483.22
2022-08-12T01:45:48.845Z,101469.41
2022-08-12T01:48:27.675Z,101481.47
2022-08-12T01:51:06.772Z,101478.06
2022-08-12T01:54:04.775Z,101479.81
2022-08-12T01:56:46.518Z,101478.13
2022-08-12T01:59:32.764Z,101461.78
2022-08-12T02:02:07.669Z,101471.28
2022-08-12T02:05:07.111Z,101472.19
2022-08-12T02:07:59.156Z,101462.84
2022-08-12T02:10:53.200Z,101469.75
2022-08-12T02:13:50.179Z,101462.03
2022-08-12T02:16:30.754Z,101468.88
2022-08-12T02:19:23.007Z,101466.19
2022-08-12T02:22:05.658Z,101459.31
2022-08-12T02:24:37.340Z,101461.03
2022-08-12T02:27:11.776Z,101458.44
2022-08-12T02:29:45.259Z,101448.16
2022-08-12T02:32:16.701Z,101459.34
2022-08-12T02:34:47.294Z,101464.53
2022-08-12T02:37:18.175Z,101474.03
2022-08-12T02:39:51.889Z,101456.84
2022-08-12T02:42:25.254Z,101462.88
2022-08-12T02:44:58.390Z,101472.38
2022-08-12T02:47:58.340Z,101453.41
2022-08-12T02:50:25.764Z,101476.75
2022-08-12T02:52:55.889Z,101478.47
2022-08-12T02:55:34.865Z,101467.25
2022-08-12T02:58:12.601Z,101476.72
2022-08-12T03:00:47.306Z,101469.81
2022-08-12T03:03:18.044Z,101447.47
2022-08-12T03:05:52.473Z,101461.25
2022-08-12T03:08:32.103Z,101463.81
2022-08-12T03:11:11.783Z,101457.78
2022-08-12T03:13:48.693Z,101458.66
2022-08-12T03:16:21.561Z,101440.59
2022-08-12T03:18:52.193Z,101450.09
2022-08-12T03:22:05.605Z,101457.84
2022-08-12T03:24:19.986Z,101473.38
2022-08-12T03:26:54.055Z,101471.66
2022-08-12T03:29:30.109Z,101474.25
2022-08-12T03:32:05.406Z,101470.81
2022-08-12T03:34:38.253Z,101472.56
2022-08-12T03:37:09.016Z,101467.38
2022-08-12T03:39:45.357Z,101468.25
2022-08-12T03:42:28.355Z,101463.97
2022-08-12T03:45:28.916Z,101438.06
2022-08-12T03:48:19.950Z,101467.38
2022-08-12T03:51:02.984Z,101473.44
2022-08-12T03:53:46.845Z,101457.94
2022-08-12T03:56:29.472Z,101456.19
2022-08-12T03:59:13.702Z,101451.84
2022-08-12T04:01:43.973Z,101460.50
2022-08-12T04:04:16.945Z,101466.50
2022-08-12T04:06:47.636Z,101468.25
2022-08-12T04:09:17.929Z,101478.56
2022-08-12T04:12:00.704Z,101469.09
2022-08-12T04:14:30.738Z,101469.97
2022-08-12T04:17:01.155Z,101429.47
2022-08-12T04:19:34.388Z,101452.75
2022-08-12T04:22:04.071Z,101469.97
2022-08-12T04:24:36.432Z,101451.00
2022-08-12T04:27:09.316Z,101459.63
2022-08-12T04:30:29.308Z,101461.34
2022-08-12T04:32:30.235Z,101458.78
2022-08-12T04:35:03.906Z,101464.78
2022-08-12T04:37:58.675Z,101463.94
2022-08-12T04:40:28.518Z,101457.03
2022-08-12T04:42:58.782Z,101447.56
2022-08-12T04:45:28.475Z,101445.00
2022-08-12T04:47:58.477Z,101459.63
2022-08-12T04:50:37.144Z,101457.91
2022-08-12T04:53:11.362Z,101451.00
2022-08-12T04:55:46.967Z,101458.78
2022-08-12T04:58:29.306Z,101470.00
2022-08-12T05:01:00.113Z,101466.56
2022-08-12T05:03:46.195Z,101462.25
2022-08-12T05:06:26.533Z,101470.00
2022-08-12T05:09:00.678Z,101468.25
2022-08-12T05:11:31.518Z,101454.47
2022-08-12T05:14:03.500Z,101467.38
2022-08-12T05:16:36.000Z,101469.09
2022-08-12T05:19:12.865Z,101466.50
2022-08-12T05:21:51.021Z,101474.25
2022-08-12T05:24:20.949Z,101470.81
2022-08-12T05:26:52.011Z,101475.13
2022-08-12T05:30:05.583Z,101475.97
2022-08-12T05:32:20.628Z,101421.72
2022-08-12T05:34:50.649Z,101475.09
2022-08-12T05:37:23.414Z,101466.47
2022-08-12T05:39:53.411Z,101470.78
2022-08-12T05:42:41.136Z,101476.75
2022-08-12T05:45:12.735Z,101453.47
2022-08-12T05:47:52.797Z,101469.00
2022-08-12T05:50:26.605Z,101466.38
2022-08-12T05:53:00.021Z,101473.28
2022-08-12T05:55:31.479Z,101481.91
2022-08-12T05:58:01.733Z,101470.63
2022-08-12T06:00:33.420Z,101479.03
2022-08-12T06:03:06.077Z,101477.16
2022-08-12T06:05:54.597Z,101487.34
2022-08-12T06:08:28.155Z,101477.44
2022-08-12T06:10:58.294Z,101465.94
2022-08-12T06:13:52.829Z,101482.03
2022-08-12T06:16:19.895Z,101486.94
2022-08-12T06:18:49.955Z,101484.44
2022-08-12T06:21:23.544Z,101490.94
2022-08-12T06:23:56.472Z,101470.59
2022-08-12T06:26:26.482Z,101482.00
2022-08-12T06:29:00.849Z,101484.69
2022-08-12T06:31:30.971Z,101487.00
2022-08-12T06:35:24.143Z,101488.16
2022-08-12T06:36:55.420Z,101474.00
2022-08-12T06:39:28.162Z,101482.91
2022-08-12T06:42:32.228Z,101485.66
2022-08-12T06:45:01.705Z,101485.50
2022-08-12T06:47:32.741Z,101474.34
2022-08-12T06:50:03.692Z,101463.88
2022-08-12T06:52:33.768Z,101495.88
2022-08-12T06:55:08.165Z,101443.28
2022-08-12T06:58:01.839Z,101498.00
2022-08-12T07:00:38.552Z,101497.78
2022-08-12T07:03:22.604Z,101493.38
2022-08-12T07:05:53.515Z,101480.66
2022-08-12T07:08:25.714Z,101492.56
2022-08-12T07:11:00.315Z,101441.34
2022-08-12T07:13:36.027Z,101499.97
2022-08-12T07:16:27.101Z,101501.53
2022-08-12T07:18:59.063Z,101494.69
2022-08-12T07:22:01.762Z,101505.66
2022-08-12T07:24:23.779Z,101500.16
2022-08-12T07:26:56.137Z,101497.53
2022-08-12T07:29:26.128Z,101494.47
2022-08-12T07:32:17.622Z,101503.69
2022-08-12T07:34:49.840Z,101500.78
2022-08-12T07:37:20.056Z,101509.88
2022-08-12T07:39:59.119Z,101500.31
2022-08-12T07:42:32.399Z,101492.19
2022-08-12T07:45:02.309Z,101509.50
2022-08-12T07:47:31.993Z,101492.53
2022-08-12T07:50:06.805Z,101505.94
2022-08-12T07:52:36.786Z,101500.91
2022-08-12T07:55:08.272Z,101504.78
2022-08-12T07:57:52.503Z,101509.31
2022-08-12T08:00:23.911Z,101502.72
2022-08-12T08:02:54.958Z,101468.88
2022-08-12T08:05:29.070Z,101502.13
2022-08-12T08:08:01.870Z,101439.81
2022-08-12T08:10:34.336Z,101468.19
2022-08-12T08:13:06.681Z,101490.16
2022-08-12T08:16:02.970Z,101478.28
2022-08-12T08:18:27.813Z,101479.72
2022-08-12T08:20:59.625Z,101501.41
2022-08-12T08:23:56.079Z,101504.81
2022-08-12T08:26:27.278Z,101505.19
2022-08-12T08:28:59.861Z,101505.56
2022-08-12T08:31:29.558Z,101498.16
2022-08-12T08:34:09.053Z,101492.63
2022-08-12T08:36:45.422Z,101482.50
2022-08-12T08:39:21.659Z,101500.78
2022-08-12T08:42:15.369Z,101487.81
2022-08-12T08:44:58.348Z,101497.53
2022-08-12T08:47:29.859Z,101468.91
2022-08-12T08:50:02.632Z,101469.97
2022-08-12T08:52:39.374Z,101488.63
2022-08-12T08:55:14.030Z,101470.13
2022-08-12T08:57:44.992Z,101467.84
2022-08-12T09:00:20.167Z,101484.13
2022-08-12T09:08:32.066Z,101467.09
2022-08-12T09:12:06.845Z,101464.00
2022-08-12T09:14:18.636Z,101468.84
2022-08-12T09:16:51.486Z,101476.66
2022-08-12T09:22:18.457Z,101478.19
2022-08-12T09:24:50.274Z,101427.94
2022-08-12T09:27:23.419Z,101462.47
2022-08-12T09:30:16.172Z,101458.81
2022-08-12T09:33:04.298Z,101460.47
2022-08-12T09:35:44.446Z,101454.13
2022-08-12T09:38:28.027Z,101441.66
2022-08-12T09:42:09.028Z,101445.31
2022-08-12T09:44:05.170Z,101446.69
2022-08-12T09:46:35.679Z,101448.75
2022-08-12T09:49:13.462Z,101460.94
2022-08-12T09:51:47.639Z,101453.84
2022-08-12T09:54:31.539Z,101458.88
2022-08-12T09:58:07.686Z,101425.88
2022-08-12T10:00:14.634Z,101439.25
2022-08-12T10:03:02.356Z,101428.22
2022-08-12T10:06:26.649Z,101426.84
2022-08-12T10:08:33.139Z,101423.31
2022-08-12T10:11:26.266Z,101430.72
2022-08-12T10:13:57.590Z,101411.66
2022-08-12T10:16:35.345Z,101427.69
2022-08-12T10:19:17.236Z,101432.94
2022-08-12T10:21:56.925Z,101423.06
2022-08-12T10:24:26.739Z,101416.63
2022-08-12T10:27:14.455Z,101424.00
2022-08-12T10:30:37.105Z,101411.75
2022-08-12T10:32:43.697Z,101406.41
2022-08-12T10:35:18.994Z,101416.09
2022-08-12T10:38:35.974Z,101412.22
2022-08-12T10:41:02.573Z,101401.44
2022-08-12T10:43:54.283Z,101413.91
2022-08-12T10:46:30.342Z,101411.44
2022-08-12T10:49:06.513Z,101374.06
2022-08-12T10:52:32.542Z,101398.88
2022-08-12T10:54:49.252Z,101401.19
2022-08-12T10:58:15.701Z,101392.00
2022-08-12T11:00:30.737Z,101391.31
2022-08-12T11:04:25.628Z,101399.81
2022-08-12T11:07:06.995Z,101358.44
2022-08-12T11:08:46.356Z,101389.19
2022-08-12T11:12:36.103Z,101386.06
2022-08-12T11:14:47.883Z,101367.56
2022-08-12T11:17:33.628Z,101379.81
2022-08-12T11:19:50.467Z,101388.19
2022-08-12T11:22:24.112Z,101380.06
2022-08-12T11:24:55.252Z,101376.88
2022-08-12T11:27:29.602Z,101338.91
2022-08-12T11:30:06.081Z,101352.25
2022-08-12T11:32:38.539Z,101330.66
2022-08-12T11:35:11.683Z,101366.78
2022-08-12T11:37:58.402Z,101371.19
2022-08-12T11:40:29.289Z,101373.22
2022-08-12T11:43:19.720Z,101367.66
2022-08-12T11:45:52.864Z,101346.91
2022-08-12T11:48:27.129Z,101369.44
2022-08-12T11:50:57.667Z,101365.50
2022-08-12T11:53:57.747Z,101359.72
2022-08-12T11:56:17.242Z,101364.50
2022-08-12T12:02:03.114Z,101354.09
2022-08-12T12:04:29.699Z,101355.69
2022-08-12T12:07:07.206Z,101339.41
2022-08-12T12:09:52.058Z,101345.78
2022-08-12T12:12:25.859Z,101337.25
2022-08-12T12:15:03.058Z,101311.75
2022-08-12T12:17:39.443Z,101344.22
2022-08-12T12:20:13.300Z,101339.88
2022-08-12T12:22:45.192Z,101336.16
2022-08-12T12:25:15.330Z,101330.03
2022-08-12T12:28:05.079Z,101336.94
2022-08-12T12:30:39.290Z,101324.75
2022-08-12T12:33:24.299Z,101320.84
2022-08-12T12:36:18.721Z,101334.31
2022-08-12T12:38:43.990Z,101328.66
2022-08-12T12:41:16.880Z,101326.28
2022-08-12T12:44:03.651Z,101313.41
2022-08-12T12:46:36.663Z,101318.63
2022-08-12T12:49:06.849Z,101324.81
2022-08-12T12:51:48.828Z,101308.84
2022-08-12T12:54:30.872Z,101322.44
2022-08-12T12:57:02.185Z,101267.63
2022-08-12T12:59:54.913Z,101302.44
2022-08-12T13:02:31.493Z,101312.91
2022-08-12T13:05:04.733Z,101320.38
2022-08-12T13:07:54.129Z,101326.72
2022-08-12T13:10:30.618Z,101312.09
2022-08-12T13:14:07.413Z,101311.16
2022-08-12T13:15:54.011Z,101307.75
2022-08-12T13:18:36.786Z,101307.28
2022-08-12T13:21:15.851Z,101321.91
2022-08-12T13:23:59.138Z,101300.69
2022-08-12T13:26:33.070Z,101309.94
2022-08-12T13:29:04.997Z,101293.78
2022-08-12T13:32:13.530Z,101307.03
2022-08-12T13:34:34.888Z,101304.66
2022-08-12T13:37:09.671Z,101309.44
2022-08-12T13:39:39.970Z,101290.63
2022-08-12T13:42:13.616Z,101292.84
2022-08-12T13:44:46.318Z,101307.16
2022-08-12T13:47:19.924Z,101310.38
2022-08-12T13:49:56.243Z,101298.28
2022-08-12T13:52:26.180Z,101289.38
2022-08-12T13:54:56.806Z,101283.09
2022-08-12T13:57:26.877Z,101267.69
2022-08-12T14:00:00.567Z,101283.75
2022-08-12T14:02:42.528Z,101284.25
2022-08-12T14:05:31.059Z,101277.81
2022-08-12T14:08:08.728Z,101274.22
2022-08-12T14:10:51.154Z,101274.91
2022-08-12T14:14:03.951Z,101261.28
2022-08-12T14:16:16.905Z,101259.94
2022-08-12T14:19:21.811Z,101260.63
2022-08-12T14:22:01.689Z,101244.13
2022-08-12T14:24:41.008Z,101226.66
2022-08-12T14:27:12.578Z,101256.00
2022-08-12T14:30:04.142Z,101212.97
2022-08-12T14:32:37.280Z,101239.84
2022-08-12T14:35:11.187Z,101265.97
2022-08-12T14:37:55.974Z,101235.44
2022-08-12T14:40:31.518Z,101221.66
2022-08-12T14:43:06.218Z,101261.13
2022-08-12T14:45:44.565Z,101259.25
2022-08-12T14:48:24.476Z,101251.19
2022-08-12T14:52:10.359Z,101260.94
2022-08-12T14:55:36.257Z,101267.41
2022-08-12T14:59:57.658Z,101257.22
2022-08-12T15:02:28.699Z,101250.69
2022-08-12T15:04:59.856Z,101244.97
2022-08-12T15:07:34.414Z,101229.03
2022-08-12T15:10:32.496Z,101242.91
2022-08-12T15:13:06.940Z,101248.63
2022-08-12T15:15:43.826Z,101247.16
2022-08-12T15:18:20.858Z,101246.75
2022-08-12T15:20:51.481Z,101235.09
2022-08-12T15:23:22.757Z,101220.78
2022-08-12T15:26:02.683Z,101235.44
2022-08-12T15:28:35.393Z,101235.19
2022-08-12T15:31:21.292Z,101222.00
2022-08-12T15:33:58.149Z,101238.75
2022-08-12T15:36:40.770Z,101241.47
2022-08-12T15:39:17.953Z,101217.25
2022-08-12T15:41:55.223Z,101176.88
2022-08-12T15:44:38.191Z,101234.53
2022-08-12T15:47:11.410Z,101241.59
2022-08-12T15:49:59.875Z,101241.06
2022-08-12T15:52:32.590Z,101232.56
2022-08-12T15:55:05.931Z,101225.16
2022-08-12T15:57:40.139Z,101227.34
2022-08-12T16:00:22.483Z,101160.19
2022-08-12T16:03:05.748Z,101228.06
2022-08-12T16:06:12.714Z,101227.97
2022-08-12T16:08:40.133Z,101231.91
2022-08-12T16:11:15.456Z,101168.25
2022-08-12T16:13:48.666Z,101215.84
2022-08-12T16:16:23.895Z,101214.84
2022-08-12T16:18:58.781Z,101216.13
2022-08-12T16:21:50.380Z,101204.78
2022-08-12T16:24:20.533Z,101218.22
2022-08-12T16:26:54.181Z,101224.69
2022-08-12T16:29:51.989Z,101218.94
2022-08-12T16:32:31.241Z,101196.81
2022-08-12T16:35:02.240Z,101213.81
2022-08-12T16:38:24.362Z,101207.78
2022-08-12T16:40:24.298Z,101189.25
2022-08-12T16:43:02.222Z,101204.03
2022-08-12T16:46:05.002Z,101204.38
2022-08-12T16:48:34.230Z,101205.38
2022-08-12T16:51:10.223Z,101193.91
2022-08-12T16:53:43.777Z,101190.69
2022-08-12T16:56:15.507Z,101193.50
2022-08-12T16:58:47.219Z,101189.16
2022-08-12T17:01:20.028Z,101170.41
2022-08-12T17:04:08.705Z,101195.59
2022-08-12T17:06:43.455Z,101195.47
2022-08-12T17:09:17.758Z,101171.56
2022-08-12T17:11:49.275Z,101192.13
2022-08-12T17:14:23.437Z,101179.75
2022-08-12T17:16:58.492Z,101194.16
2022-08-12T17:20:29.668Z,101174.97
2022-08-12T17:22:21.481Z,101153.97
2022-08-12T17:24:55.892Z,101135.31
2022-08-12T17:27:30.844Z,101179.28
2022-08-12T17:30:04.736Z,101180.22
2022-08-12T17:32:40.825Z,101181.06
2022-08-12T17:35:30.237Z,101176.31
2022-08-12T17:38:13.697Z,101174.56
2022-08-12T17:40:46.587Z,101183.50
2022-08-12T17:43:55.687Z,101159.53
2022-08-12T17:46:13.041Z,101169.03
2022-08-12T17:48:57.910Z,101194.81
2022-08-12T17:51:31.481Z,101188.94
2022-08-12T17:54:11.004Z,101175.75
2022-08-12T17:56:44.633Z,101175.41
2022-08-12T17:59:48.170Z,101168.19
2022-08-12T18:02:08.706Z,101182.06
2022-08-12T18:05:04.899Z,101171.84
2022-08-12T18:07:35.763Z,101198.41
2022-08-12T18:10:06.595Z,101192.47
2022-08-12T18:12:50.920Z,101203.91
2022-08-12T18:15:26.327Z,101182.41
2022-08-12T18:18:17.142Z,101198.81
2022-08-12T18:20:51.937Z,101186.75
2022-08-12T18:23:24.263Z,101208.47
2022-08-12T18:26:15.489Z,101212.28
2022-08-12T18:28:48.556Z,101190.91
2022-08-12T18:31:23.369Z,101217.53
2022-08-12T18:33:54.435Z,101204.44
2022-08-12T18:36:33.985Z,101196.63
2022-08-12T18:39:04.627Z,101217.56
2022-08-12T18:41:36.002Z,101199.84
2022-08-12T18:44:09.743Z,101210.19
2022-08-12T18:46:55.307Z,101197.78
2022-08-12T18:49:35.045Z,101205.72
2022-08-12T18:52:12.206Z,101190.94
2022-08-12T18:54:49.069Z,101198.16
2022-08-12T18:58:05.895Z,101194.22
2022-08-12T19:00:20.860Z,101218.31
2022-08-12T19:02:53.803Z,101208.09
2022-08-12T19:05:52.616Z,101207.44
2022-08-12T19:08:18.030Z,101209.41
2022-08-12T19:10:50.516Z,101218.00
2022-08-12T19:13:35.775Z,101213.94
2022-08-12T19:16:12.628Z,101220.28
2022-08-12T19:18:44.821Z,101225.09
2022-08-12T19:21:16.004Z,101225.25
2022-08-12T19:24:09.398Z,101134.00
2022-08-12T19:26:36.842Z,101219.16
2022-08-12T19:29:08.453Z,101221.84
2022-08-12T19:31:45.062Z,101223.09
2022-08-12T19:37:22.901Z,101220.13
2022-08-12T19:40:09.443Z,101227.66
2022-08-12T19:43:00.631Z,101227.06
2022-08-12T19:45:43.934Z,101235.41
2022-08-12T19:48:22.408Z,101228.34
2022-08-12T19:50:56.743Z,101235.25
2022-08-12T19:53:29.137Z,101235.03
2022-08-12T19:56:02.763Z,101242.53
2022-08-12T19:58:32.585Z,101199.16
2022-08-12T20:01:02.770Z,101249.66
2022-08-12T20:03:41.470Z,101249.94
2022-08-12T20:06:15.907Z,101241.75
2022-08-12T20:08:56.314Z,101241.03
2022-08-12T20:12:15.241Z,101243.06
2022-08-12T20:14:21.513Z,101246.97
2022-08-12T20:17:02.335Z,101239.47
2022-08-12T20:20:01.332Z,101216.44
2022-08-12T20:22:31.562Z,101239.97
2022-08-12T20:25:07.214Z,101242.19
2022-08-12T20:28:05.235Z,101257.84
2022-08-12T20:30:52.225Z,101240.13
2022-08-12T20:33:32.559Z,101257.31
2022-08-12T20:36:41.770Z,101257.50
2022-08-12T20:39:37.356Z,101231.28
2022-08-12T20:42:00.067Z,101264.22
2022-08-12T20:44:36.468Z,101265.19
2022-08-12T20:47:19.691Z,101252.75
2022-08-12T20:49:55.617Z,101263.22
2022-08-12T20:52:34.045Z,101251.47
2022-08-12T20:55:05.269Z,101243.25
2022-08-12T20:58:02.531Z,101262.25
2022-08-12T21:00:37.131Z,101243.53
2022-08-12T21:03:23.423Z,101266.78
2022-08-12T21:06:17.802Z,101258.44
2022-08-12T21:08:47.815Z,101257.00
2022-08-12T21:11:22.299Z,101268.91
2022-08-12T21:13:54.550Z,101260.44
2022-08-12T21:16:38.774Z,101263.78
2022-08-12T21:19:11.851Z,101255.38
2022-08-12T21:21:53.896Z,101259.88
2022-08-12T21:24:32.284Z,101257.97
2022-08-12T21:27:03.298Z,101262.22
2022-08-12T21:29:49.932Z,101269.13
2022-08-12T21:32:37.899Z,101235.78
2022-08-12T21:35:19.263Z,101264.00
2022-08-12T21:37:53.189Z,101266.50
2022-08-12T21:40:37.326Z,101271.53
2022-08-12T21:43:16.945Z,101277.88
2022-08-12T21:46:00.259Z,101277.19
2022-08-12T21:48:33.314Z,101264.50
2022-08-12T21:51:03.105Z,101277.72
2022-08-12T21:54:07.912Z,101259.31
2022-08-12T21:56:38.137Z,101284.25
2022-08-12T21:59:14.843Z,101282.66
2022-08-12T22:01:48.960Z,101284.59
2022-08-12T22:04:35.610Z,101286.38
2022-08-12T22:07:08.157Z,101272.78
2022-08-12T22:09:42.510Z,101273.72
2022-08-12T22:12:26.873Z,101285.75
2022-08-12T22:14:57.130Z,101283.34
2022-08-12T22:17:49.529Z,101271.44
2022-08-12T22:20:23.896Z,101283.53
2022-08-12T22:23:00.360Z,101289.53
2022-08-12T22:25:32.031Z,101288.66
2022-08-12T22:28:14.764Z,101267.16
2022-08-12T22:30:57.952Z,101286.94
2022-08-12T22:33:27.618Z,101251.00
2022-08-12T22:36:00.112Z,101283.34
2022-08-12T22:38:31.551Z,101277.25
2022-08-12T22:41:03.141Z,101234.28
2022-08-12T22:43:59.247Z,101243.81
2022-08-12T22:46:53.025Z,101283.13
2022-08-12T22:49:37.324Z,101277.13
2022-08-12T22:52:18.712Z,101271.94
2022-08-12T22:55:02.660Z,101271.22
2022-08-12T22:57:49.049Z,101263.63
2022-08-12T23:00:27.864Z,101284.78
2022-08-12T23:03:03.449Z,101284.16
2022-08-12T23:06:09.725Z,101274.06
2022-08-12T23:08:32.405Z,101280.38
2022-08-12T23:11:05.892Z,101269.16
2022-08-12T23:13:55.533Z,101269.22
2022-08-12T23:16:33.387Z,101271.19
2022-08-12T23:19:11.059Z,101274.66
2022-08-12T23:22:03.811Z,101278.16
2022-08-12T23:24:56.498Z,101262.91
2022-08-12T23:27:44.467Z,101268.25
2022-08-12T23:30:31.950Z,101268.41
2022-08-12T23:33:19.767Z,101276.25
2022-08-12T23:36:02.659Z,101274.56
2022-08-12T23:38:34.675Z,101269.28
2022-08-12T23:41:08.899Z,101276.06
2022-08-12T23:43:42.773Z,101273.63
2022-08-12T23:46:22.464Z,101279.66
2022-08-12T23:48:59.754Z,101280.53
2022-08-12T23:51:32.186Z,101273.66
2022-08-12T23:54:05.484Z,101270.31
2022-08-12T23:56:43.704Z,101270.53
2022-08-12T23:59:16.752Z,101269.00
